Weather observations for the past three days for
Broomfield / Jeffco
Imperial (Metric)
Date Time (mdt) Wind (mph) Vis. (mi.) Weather Sky Cond. Temperature (ºF) Relative Humidity Wind Chill (°F) Heat Index (°F) Pressure Precipitation (in)
Air Dwpt 6 hour altimeter (in) sea level (mb) 1 hr 3 hr 6 hr
Max. Min.
07 21:35 E 5 10.00 Overcast OVC110 57.2 33.8 41% 29.99 0.0
07 21:15 Calm 10.00 Overcast OVC100 59 32 36% 29.99 0.0
07 20:55 Calm 10.00 Overcast OVC110 57.2 33.8 41% 29.98 0.0
07 20:35 W 7 10.00 Overcast OVC110 55.4 35.6 47% 29.97 0.0
07 20:15 Calm 10.00 Mostly Cloudy BKN100 60.8 32 34% 29.97 0.0
07 19:45 NE 10 10.00 Mostly Cloudy SCT050 BKN080 59 35.6 42% 29.96 0.0
07 18:49 S 6 10.00 Mostly Cloudy BKN110 64.4 26.6 24% 29.93 0.0
07 17:49 Calm 10.00 Mostly Cloudy BKN110 68 23 18% 29.92 0.0
07 16:45 Calm 10.00 Partly Cloudy SCT110 66.2 24.8 21% 29.93 0.0
07 15:45 W 8 10.00 Partly Cloudy SCT110 68 26.6 21% 29.96 0.0
07 14:46 W 8 10.00 Fair CLR 66.2 26.6 22% 29.99 0.0
07 13:50 NW 7 G 20 10.00 Fair CLR 64.4 28.4 26% 30 0.0
07 12:50 W 8 G 20 10.00 Fair CLR 62.6 28.4 27% 30.02 0.0
07 11:49 W 17 10.00 Fair CLR 57.2 30.2 36% 30.01 0.0
07 10:49 SE 7 10.00 Fair CLR 57.2 33.8 41% 30.03 0.0
07 09:49 NW 15 10.00 Fair CLR 57.2 30.2 36% 30.04 0.0
07 08:45 E 6 10.00 Fair CLR 51.8 30.2 44% 30.04 0.0
07 07:45 Calm 10.00 Fair CLR 51.8 24.8 35% 30.04 0.0
07 06:15 W 10 10.00 Fair CLR 44.6 24.8 46% 40 30.01 0.0
07 05:55 W 8 10.00 Fair CLR 44.6 24.8 46% 41 30.02 0.0
07 05:35 SW 8 10.00 Fair CLR 42.8 24.8 49% 39 30.02 0.0
07 05:15 W 7 10.00 Fair CLR 44.6 23 43% 41 30.01 0.0
07 04:55 SW 5 10.00 Fair CLR 42.8 23 46% 41 30.02 0.0
07 04:35 SW 8 10.00 Fair CLR 44.6 21.2 39% 41 30.01 0.0
07 04:15 S 7 10.00 Fair CLR 42.8 23 46% 39 30.02 0.0
07 03:55 Calm 10.00 Fair CLR 44.6 21.2 39% 30.02 0.0
07 03:35 SW 3 10.00 Fair CLR 42.8 21.2 42% 30.03 0.0
07 03:15 W 6 10.00 Fair CLR 42.8 21.2 42% 40 30.02 0.0
07 02:55 W 6 10.00 Fair CLR 42.8 21.2 42% 40 30.03 0.0
07 02:35 Calm 10.00 Fair CLR 42.8 19.4 39% 30.03 0.0
07 02:15 SW 6 10.00 Fair CLR 42.8 21.2 42% 40 30.03 0.0
07 01:55 W 9 10.00 Fair CLR 42.8 19.4 39% 38 30.04 0.0
07 01:35 W 6 10.00 Fair CLR 37.4 23 56% 33 30.05 0.0
07 01:15 SW 6 10.00 Fair CLR 37.4 26.6 65% 33 30.05 0.0
07 00:55 SW 5 10.00 Fair CLR 37.4 24.8 60% 34 30.06 0.0
07 00:35 SW 8 10.00 Fair CLR 37.4 28.4 70% 32 30.06 0.0
07 00:15 S 8 10.00 Fair CLR 39.2 28.4 65% 34 30.06 0.0
06 23:55 SW 8 10.00 Fair CLR 35.6 30.2 81% 30 30.06 0.0
06 23:35 W 14 G 17 10.00 Fair CLR 33.8 32 93% 25 30.06 0.0
06 23:15 W 5 10.00 Fair CLR 32 30.2 93% 28 30.07 0.0
06 22:55 W 3 10.00 Fair CLR 32 30.2 93% 30.07 0.0
06 22:35 W 6 10.00 Fair CLR 32 28.4 87% 27 30.07 0.0
06 22:15 W 6 10.00 Fair CLR 32 30.2 93% 27 30.08 0.0
06 21:55 W 3 10.00 Fair CLR 33.8 30.2 87% 30.08 0.0
06 21:35 S 3 10.00 Fair CLR 35.6 30.2 81% 30.08 0.0
06 21:15 S 5 10.00 Fair CLR 35.6 30.2 81% 32 30.08 0.0
06 20:55 S 6 10.00 Fair CLR 35.6 30.2 81% 31 30.08 0.0
06 20:35 S 7 10.00 Fair CLR 35.6 30.2 81% 31 30.07 0.0
06 20:15 S 9 10.00 Fair CLR 35.6 30.2 81% 29 30.06 0.0
06 19:45 Vrbl 3 10.00 Fair CLR 37.4 30.2 75% 30.06 0.0
06 18:45 Vrbl 3 10.00 Fair CLR 39.2 28.4 65% 30.08 0.0
06 17:45 Vrbl 3 10.00 A Few Clouds FEW060 37.4 28.4 70% 30.09 0.0
06 16:45 S 7 10.00 Mostly Cloudy SCT020 BKN040 37.4 28.4 70% 33 30.1 0.0
06 15:45 S 8 10.00 Mostly Cloudy BKN022 35.6 28.4 75% 30 30.12 0.0
06 14:48 Calm 10.00 Overcast OVC022 35.6 26.6 70% 30.13 0.0
06 13:45 Calm 10.00 Mostly Cloudy BKN013 BKN015 35.6 28.4 75% 30.14 0.0
06 12:45 Calm 6.00 Fog/Mist OVC010 OVC015 33.8 30.2 87% 30.16 0.0
06 11:50 NE 6 1.50 Light Snow Fog/Mist OVC006 32 28.4 87% 27 30.17 0.0
06 10:52 NE 14 1.00 Snow OVC004 32 30.2 93% 23 30.15 0.0
06 09:50 N 14 1.00 Light Snow Fog/Mist OVC004 32 30.2 93% 23 30.12 0.0
06 08:50 N 10 1.00 Snow OVC004 32 32 100% 24 30.11 0.0
06 07:50 N 12 0.75 Snow OVC004 32 32 100% 24 30.1 0.0
06 06:58 Calm 0.75 Snow OVC004 32 32 100% 30.08 0.0
06 06:15 N 3 1.25 Light Snow SCT004 OVC018 32 32 100% 30.07 0.0
06 05:55 N 3 4.00 Light Snow BKN006 BKN012 OVC020 32 32 100% 30.06 0.0
06 05:35 N 3 5.00 Light Snow OVC006 32 32 100% 30.06 0.0
06 05:15 N 3 5.00 Light Snow BKN003 OVC010 32 32 100% 30.06 0.0
06 04:55 N 3 7.00 Unknown Precip SCT003 OVC012 32 32 100% 30.05 0.0
06 04:35 Calm 5.00 Light Snow OVC003 32 32 100% 30.04 0.0
06 04:15 N 3 3.00 Light Snow BKN003 OVC020 32 32 100% 30.05 0.0
06 03:55 N 5 5.00 Light Snow BKN003 OVC028 32 32 100% 28 30.05 0.0
06 03:35 N 6 3.00 Light Snow OVC003 32 32 100% 27 30.04 0.0
06 03:15 N 3 1.50 Light Snow OVC003 32 32 100% 30.04 0.0
06 02:55 N 3 1.00 Snow OVC003 32 32 100% 30.04 0.0
06 02:35 N 5 1.00 Snow OVC003 32 32 100% 28 30.04 0.0
06 02:15 N 6 1.50 Light Snow OVC003 32 32 100% 27 30.04 0.0
06 01:55 N 7 1.50 Light Snow OVC003 32 32 100% 26 30.05 0.0
06 01:35 N 5 1.00 Snow OVC003 32 32 100% 28 30.04 0.0
06 01:15 N 5 0.75 Snow OVC003 32 32 100% 28 30.04 0.0
06 00:55 N 5 1.00 Snow OVC003 32 32 100% 28 30.04 0.0
06 00:35 N 6 1.25 Light Snow OVC003 32 32 100% 27 30.04 0.0
06 00:15 N 6 1.25 Light Snow OVC003 32 32 100% 27 30.03 0.0
05 23:55 N 5 1.50 Light Snow OVC003 32 32 100% 28 30.03 0.0
05 23:35 N 3 2.00 Light Snow OVC003 32 32 100% 30.03 0.0
05 23:15 N 5 1.25 Light Snow BKN003 OVC007 32 32 100% 28 30.03 0.0
05 22:35 N 5 1.00 Snow OVC003 32 32 100% 28 30.02 0.0
05 22:15 N 6 1.25 Snow OVC003 32 32 100% 27 30.02 0.0
05 21:55 N 7 1.25 Snow OVC003 32 32 100% 26 30.01 0.0
05 21:35 N 8 1.50 Light Snow OVC003 32 32 100% 25 30.01 0.0
05 21:15 N 7 1.25 Snow OVC003 32 32 100% 26 30 0.0
05 20:55 N 7 1.50 Light Snow BKN003 BKN007 OVC018 32 32 100% 26 29.99 0.0
05 20:35 N 8 1.25 Snow BKN003 OVC007 32 32 100% 25 29.99 0.0
05 20:15 N 8 1.50 Light Snow OVC003 32 32 100% 25 29.97 0.0
05 19:45 N 12 1.00 Light Snow OVC005 33.8 32 93% 26 29.97 0.0
05 18:48 N 15 0.75 Light Snow Fog/Mist OVC005 33.8 33.8 100% 25 29.95 0.0
05 17:52 N 15 0.50 Light Snow Fog OVC003 33.8 32 93% 25 29.95 0.0
05 16:45 N 17 0.50 Snow Fog OVC003 33.8 33.8 100% 24 29.93 0.0
05 15:45 N 16 0.75 Light Snow Fog/Mist OVC006 35.6 33.8 93% 27 29.91 0.0
05 14:45 N 8 4.00 Light Rain Fog/Mist OVC006 39.2 37.4 93% 34 29.93 0.0
05 13:48 NE 10 4.00 Light Rain OVC007 37.4 37.4 100% 31 29.94 0.0
05 12:48 NE 9 4.00 Light Rain OVC007 39.2 37.4 93% 34 29.95 0.0
05 11:47 N 7 3.00 Light Rain OVC004 37.4 35.6 93% 33 29.97 0.0
05 10:47 N 6 5.00 Fog/Mist OVC004 35.6 35.6 100% 31 29.98 0.0
05 09:48 N 8 2.00 Light Drizzle OVC006 35.6 35.6 100% 30 29.99 0.0
05 08:47 NW 6 6.00 Light Drizzle OVC008 35.6 35.6 100% 31 30 0.0
05 07:45 N 9 2.00 Light Snow OVC003 33.8 33.8 100% 27 30 0.0
05 06:45 N 13 2.00 Light Snow OVC003 33.8 33.8 100% 25 29.97 0.0
05 06:15 N 10 3.00 Light Snow BKN003 OVC018 33.8 33.8 100% 26 29.96 0.0
05 05:55 N 13 3.00 Light Rain BKN003 OVC016 33.8 33.8 100% 25 29.96 0.0
05 05:35 N 13 2.00 Light Rain OVC003 35.6 33.8 93% 28 29.96 0.0
05 05:15 N 15 2.50 Light Rain BKN005 BKN008 OVC018 35.6 35.6 100% 27 29.95 0.0
05 04:55 N 17 G 23 10.00 Light Rain SCT008 OVC016 37.4 35.6 93% 29 29.94 0.0
05 04:35 N 12 10.00 Light Rain SCT007 BKN010 OVC019 39.2 37.4 93% 33 29.93 0.0
05 04:15 N 17 G 22 10.00 Light Rain OVC008 39.2 37.4 93% 31 29.92 0.0
05 03:55 N 17 G 21 10.00 Unknown Precip OVC004 41 37.4 87% 33 29.91 0.0
05 03:35 N 15 10.00 Light Rain OVC004 41 39.2 93% 34 29.91 0.0
05 03:15 N 18 10.00 Overcast OVC004 41 41 100% 33 29.91 0.0
05 02:55 N 17 G 23 10.00 Overcast OVC004 42.8 41 93% 35 29.9 0.0
05 02:35 N 17 10.00 Light Drizzle OVC006 42.8 41 93% 35 29.9 0.0
05 02:15 N 16 10.00 Light Rain BKN006 OVC015 42.8 41 93% 36 29.91 0.0
05 01:55 N 12 10.00 Light Rain SCT008 BKN025 OVC032 46.4 44.6 93% 42 29.9 0.0
05 01:35 Calm 10.00 Overcast SCT033 OVC040 46.4 44.6 93% 29.91 0.0
05 01:15 Calm 10.00 Overcast OVC040 46.4 42.8 87% 29.9 0.0
05 00:55 S 3 10.00 Overcast OVC042 46.4 42.8 87% 29.9 0.0
05 00:35 Calm 10.00 Light Rain SCT040 BKN048 OVC065 46.4 42.8 87% 29.9 0.0
05 00:15 Calm 10.00 Overcast SCT050 OVC065 46.4 44.6 93% 29.9 0.0
04 23:35 S 5 10.00 Fair CLR 46.4 42.8 87% 45 29.9 0.0
04 23:15 S 7 10.00 Partly Cloudy SCT060 46.4 42.8 87% 43 29.9 0.0
04 22:55 S 3 10.00 Mostly Cloudy SCT048 SCT060 BKN100 46.4 42.8 87% 29.9 0.0
04 22:15 W 7 10.00 Light Rain BKN050 OVC070 46.4 42.8 87% 43 29.91 0.0
04 21:55 SW 7 10.00 Light Rain BKN050 OVC055 46.4 42.8 87% 43 29.91 0.0
Date Time (mdt) Wind (mph) Vis. (mi.) Weather Sky Cond. Air Dwpt Max. Min. Relative Humidity Wind Chill (°F) Heat Index (°F) altimeter (in) sea level (mb) 1 hr 3 hr 6 hr
6 hour
Temperature (ºF) Pressure Precipitation (in)